Time;durP1;ratioP1;P1;durP2;ratioP2;P2;SDS_P1;SDS_P2;PMS_P1;PMS_P2;Temp;Humidity;BMP_temperature;BMP_pressure;BME280_temperature;BME280_humidity;BME280_pressure;Samples;Min_cycle;Max_cycle;Signal;HPM_P1;HPM_P2
2022/08/20 00:03:11;;;;;;;11.70;5.95;;;;;;;;;;10360447;28;20088;-73
2022/08/20 00:08:16;;;;;;;11.25;5.57;;;;;;;;;;10362763;28;20050;-75
2022/08/20 00:13:20;;;;;;;14.52;8.05;;;;;;;;;;10359436;28;20077;-74
2022/08/20 00:18:23;;;;;;;14.43;8.20;;;;;;;;;;10364629;28;20280;-74
2022/08/20 00:23:27;;;;;;;11.65;6.53;;;;;;;;;;10367770;28;20136;-73
2022/08/20 00:28:30;;;;;;;15.38;8.00;;;;;;;;;;10368498;28;20084;-74
2022/08/20 00:33:33;;;;;;;14.53;8.07;;;;;;;;;;10363375;28;20154;-74
2022/08/20 00:38:39;;;;;;;15.27;8.43;;;;;;;;;;10362715;28;20331;-74
2022/08/20 00:43:44;;;;;;;17.95;9.38;;;;;;;;;;10365573;28;20168;-74
2022/08/20 00:48:49;;;;;;;16.85;8.35;;;;;;;;;;10362892;28;20411;-73
2022/08/20 00:54:05;;;;;;;19.48;9.73;;;;;;;;;;10368459;28;20049;-74
2022/08/20 00:59:10;;;;;;;19.85;10.05;;;;;;;;;;10363893;28;20277;-74
2022/08/20 01:04:13;;;;;;;20.23;10.45;;;;;;;;;;10368050;28;20042;-75
2022/08/20 01:09:17;;;;;;;18.47;10.67;;;;;;;;;;10362069;28;20464;-74
2022/08/20 01:14:44;;;;;;;21.00;9.57;;;;;;;;;;10358827;28;20046;-75
2022/08/20 01:19:48;;;;;;;20.52;11.07;;;;;;;;;;10366801;28;20045;-74
2022/08/20 01:24:56;;;;;;;22.23;11.38;;;;;;;;;;10359851;28;20030;-73
2022/08/20 01:30:01;;;;;;;21.55;11.45;;;;;;;;;;10357978;28;20142;-74
2022/08/20 01:35:10;;;;;;;19.83;10.23;;;;;;;;;;10361775;28;20042;-74
2022/08/20 01:40:14;;;;;;;23.00;11.80;;;;;;;;;;10366597;28;20052;-75
2022/08/20 01:45:20;;;;;;;17.75;8.90;;;;;;;;;;10362308;28;20054;-73
2022/08/20 01:50:30;;;;;;;24.25;11.68;;;;;;;;;;10363632;28;20054;-72
2022/08/20 01:55:34;;;;;;;22.00;11.40;;;;;;;;;;10361727;28;20038;-74
2022/08/20 02:00:38;;;;;;;27.77;13.43;;;;;;;;;;10361113;28;20038;-72
2022/08/20 02:05:41;;;;;;;21.65;10.50;;;;;;;;;;10360006;28;20056;-74
2022/08/20 02:10:45;;;;;;;24.27;11.60;;;;;;;;;;10363471;28;20042;-75
2022/08/20 02:15:47;;;;;;;;;;;;;;;;;;10362053;28;20069;-73
2022/08/20 02:20:52;;;;;;;25.08;12.02;;;;;;;;;;10358812;28;20028;-73
2022/08/20 02:25:55;;;;;;;25.58;11.95;;;;;;;;;;10357607;28;20137;-77
2022/08/20 02:30:59;;;;;;;23.08;12.45;;;;;;;;;;10362847;28;20042;-73
2022/08/20 02:36:03;;;;;;;25.95;10.95;;;;;;;;;;10359317;28;20042;-72
2022/08/20 02:41:06;;;;;;;16.17;8.45;;;;;;;;;;10344847;28;20041;-72
2022/08/20 02:46:09;;;;;;;32.03;14.83;;;;;;;;;;10359799;28;20066;-73
2022/08/20 02:51:13;;;;;;;21.15;10.90;;;;;;;;;;10346161;28;20316;-76
2022/08/20 02:56:17;;;;;;;25.50;12.25;;;;;;;;;;10356170;28;20145;-73
2022/08/20 03:01:19;;;;;;;17.88;8.93;;;;;;;;;;10352463;28;20040;-73
2022/08/20 03:06:24;;;;;;;16.83;8.43;;;;;;;;;;10349407;28;20129;-73
2022/08/20 03:11:26;;;;;;;29.15;13.65;;;;;;;;;;10350602;28;20046;-73
2022/08/20 03:16:30;;;;;;;25.95;13.00;;;;;;;;;;10348742;28;20049;-73
2022/08/20 03:21:34;;;;;;;29.20;14.68;;;;;;;;;;10346125;28;20060;-72
2022/08/20 03:26:36;;;;;;;21.00;10.00;;;;;;;;;;10352100;28;20035;-73
2022/08/20 03:31:40;;;;;;;27.17;13.38;;;;;;;;;;10345026;28;20484;-73
2022/08/20 03:36:44;;;;;;;26.60;13.10;;;;;;;;;;10343769;28;20129;-72
2022/08/20 03:41:47;;;;;;;24.83;12.77;;;;;;;;;;10350215;28;20129;-72
2022/08/20 03:46:50;;;;;;;29.53;11.90;;;;;;;;;;10354720;28;20120;-72
2022/08/20 03:51:54;;;;;;;30.00;12.50;;;;;;;;;;10343523;28;20129;-74
2022/08/20 03:57:01;;;;;;;26.75;13.32;;;;;;;;;;10352218;28;20513;-75
2022/08/20 04:02:14;;;;;;;28.05;13.77;;;;;;;;;;10355394;28;20053;-72
2022/08/20 04:07:24;;;;;;;30.42;13.68;;;;;;;;;;10354388;28;20562;-73
2022/08/20 04:12:27;;;;;;;26.10;13.35;;;;;;;;;;10356595;28;20046;-75
2022/08/20 04:17:31;;;;;;;30.80;14.10;;;;;;;;;;10354699;28;20234;-75
2022/08/20 04:22:36;;;;;;;18.45;7.95;;;;;;;;;;10342159;28;20073;-74
2022/08/20 04:27:40;;;;;;;26.73;13.00;;;;;;;;;;10353877;28;20472;-74
2022/08/20 04:32:43;;;;;;;19.50;8.85;;;;;;;;;;10359928;28;20053;-72
2022/08/20 04:37:48;;;;;;;26.35;12.35;;;;;;;;;;10356195;28;20048;-73
2022/08/20 04:42:51;;;;;;;19.95;9.95;;;;;;;;;;10363089;28;20065;-73
2022/08/20 04:47:55;;;;;;;16.92;7.03;;;;;;;;;;10355808;28;20048;-73
2022/08/20 04:52:59;;;;;;;25.17;11.48;;;;;;;;;;10363282;28;20192;-73
2022/08/20 04:58:03;;;;;;;23.55;11.52;;;;;;;;;;10353909;28;20042;-73
2022/08/20 05:03:06;;;;;;;;;;;;;;;;;;10344523;28;20133;-72
2022/08/20 05:08:10;;;;;;;29.92;12.85;;;;;;;;;;10370550;28;19921;-73
2022/08/20 05:13:21;;;;;;;29.20;13.48;;;;;;;;;;10376776;28;20048;-72
2022/08/20 05:18:32;;;;;;;27.20;13.57;;;;;;;;;;10374060;28;20129;-72
2022/08/20 05:23:41;;;;;;;24.45;12.18;;;;;;;;;;10370817;28;20129;-73
2022/08/20 05:28:44;;;;;;;24.75;11.32;;;;;;;;;;10363491;28;20076;-73
2022/08/20 05:34:01;;;;;;;24.55;11.88;;;;;;;;;;10370312;28;20042;-75
2022/08/20 05:39:05;;;;;;;22.40;10.90;;;;;;;;;;10368361;28;20042;-73
2022/08/20 05:44:12;;;;;;;16.92;8.23;;;;;;;;;;10361818;28;20084;-75
2022/08/20 05:49:16;;;;;;;22.10;11.40;;;;;;;;;;10358413;28;20034;-74
2022/08/20 05:54:20;;;;;;;22.90;12.63;;;;;;;;;;10361695;28;20116;-74
2022/08/20 05:59:23;;;;;;;23.60;11.48;;;;;;;;;;10353177;28;20475;-73
2022/08/20 06:04:27;;;;;;;23.17;11.57;;;;;;;;;;10348703;28;20129;-74
2022/08/20 06:09:31;;;;;;;21.60;10.60;;;;;;;;;;10344047;28;20044;-74
2022/08/20 06:14:35;;;;;;;17.15;8.75;;;;;;;;;;10352229;28;20074;-74
2022/08/20 06:19:38;;;;;;;21.08;10.70;;;;;;;;;;10362649;28;20073;-73
2022/08/20 06:24:47;;;;;;;21.33;11.27;;;;;;;;;;10360073;28;20041;-74
2022/08/20 06:29:50;;;;;;;19.60;9.68;;;;;;;;;;10365564;28;20042;-73
2022/08/20 06:34:53;;;;;;;21.40;11.23;;;;;;;;;;10363783;28;20056;-73
2022/08/20 06:39:59;;;;;;;16.45;9.13;;;;;;;;;;10359875;28;20066;-73
2022/08/20 06:45:04;;;;;;;19.00;9.73;;;;;;;;;;10360498;28;20080;-73
2022/08/20 06:50:08;;;;;;;16.90;9.48;;;;;;;;;;10358973;28;20041;-74
2022/08/20 06:55:13;;;;;;;17.67;9.27;;;;;;;;;;10360011;28;20045;-74
2022/08/20 07:00:17;;;;;;;16.67;9.50;;;;;;;;;;10367753;28;20304;-74
2022/08/20 07:05:20;;;;;;;14.05;8.63;;;;;;;;;;10359929;28;20045;-75
2022/08/20 07:10:24;;;;;;;17.23;9.18;;;;;;;;;;10357513;28;20108;-74
2022/08/20 07:15:27;;;;;;;18.23;8.73;;;;;;;;;;10352349;28;20205;-74
2022/08/20 07:20:31;;;;;;;17.48;8.70;;;;;;;;;;10357934;28;20073;-73
2022/08/20 07:25:35;;;;;;;17.30;8.43;;;;;;;;;;10356700;28;20100;-75
2022/08/20 07:36:05;;;;;;;16.02;7.78;;;;;;;;;;10355077;28;20037;-74
2022/08/20 07:41:13;;;;;;;15.90;8.32;;;;;;;;;;10350530;28;20225;-74
2022/08/20 07:46:17;;;;;;;15.00;8.20;;;;;;;;;;10354831;28;20034;-73
2022/08/20 07:51:22;;;;;;;15.45;7.78;;;;;;;;;;10353477;28;20057;-74
2022/08/20 07:56:26;;;;;;;14.63;7.72;;;;;;;;;;10338196;28;20137;-74
2022/08/20 08:01:30;;;;;;;14.55;7.72;;;;;;;;;;10357987;28;20116;-74
2022/08/20 08:06:33;;;;;;;14.20;7.75;;;;;;;;;;10342252;28;20148;-74
2022/08/20 08:11:38;;;;;;;13.63;7.25;;;;;;;;;;10362512;28;20069;-74
2022/08/20 08:16:44;;;;;;;13.75;7.25;;;;;;;;;;10358297;28;20114;-73
2022/08/20 08:21:47;;;;;;;10.85;5.32;;;;;;;;;;10359365;28;20483;-74
2022/08/20 08:26:51;;;;;;;11.98;6.75;;;;;;;;;;10361094;28;20442;-75
2022/08/20 08:31:54;;;;;;;11.52;6.63;;;;;;;;;;10356024;28;20573;-76
2022/08/20 08:36:57;;;;;;;13.73;7.07;;;;;;;;;;10354394;28;20062;-75
2022/08/20 08:42:02;;;;;;;11.70;7.40;;;;;;;;;;10364387;28;20128;-74
2022/08/20 08:47:12;;;;;;;11.23;6.10;;;;;;;;;;10361720;28;20134;-74
2022/08/20 08:52:18;;;;;;;12.90;7.50;;;;;;;;;;10345709;28;20064;-74
2022/08/20 08:57:23;;;;;;;13.48;7.45;;;;;;;;;;10360571;28;20060;-74
2022/08/20 09:02:27;;;;;;;14.07;6.93;;;;;;;;;;10363350;28;20109;-74
2022/08/20 09:07:31;;;;;;;14.63;7.95;;;;;;;;;;10369901;28;20050;-74
2022/08/20 09:12:35;;;;;;;11.88;7.07;;;;;;;;;;10367587;28;20466;-74
2022/08/20 09:17:38;;;;;;;16.27;8.13;;;;;;;;;;10367260;28;20092;-74
2022/08/20 09:22:41;;;;;;;15.82;8.07;;;;;;;;;;10350404;28;20084;-76
2022/08/20 09:27:46;;;;;;;14.70;7.93;;;;;;;;;;10362265;28;20335;-74
2022/08/20 09:32:49;;;;;;;11.35;7.05;;;;;;;;;;10361331;28;20089;-74
2022/08/20 09:37:53;;;;;;;15.48;8.57;;;;;;;;;;10358583;28;20042;-74
2022/08/20 09:42:56;;;;;;;;;;;;;;;;;;10356992;28;20057;-73
2022/08/20 09:48:00;;;;;;;15.73;8.60;;;;;;;;;;10358887;28;20012;-73
2022/08/20 09:53:05;;;;;;;18.67;9.70;;;;;;;;;;10354119;28;20301;-73
2022/08/20 09:58:12;;;;;;;20.52;10.00;;;;;;;;;;10343538;28;20388;-74
2022/08/20 10:03:17;;;;;;;20.88;10.70;;;;;;;;;;10351617;28;20061;-74
2022/08/20 10:08:19;;;;;;;19.67;10.05;;;;;;;;;;10348313;28;20040;-73
2022/08/20 10:13:22;;;;;;;18.40;9.88;;;;;;;;;;10353349;28;20459;-73
2022/08/20 10:18:26;;;;;;;17.00;10.35;;;;;;;;;;10358690;28;20101;-75
2022/08/20 10:23:29;;;;;;;20.00;11.55;;;;;;;;;;10362942;28;20278;-74
2022/08/20 10:28:32;;;;;;;19.05;10.55;;;;;;;;;;10367918;28;20426;-73
2022/08/20 10:33:36;;;;;;;17.50;10.60;;;;;;;;;;10361351;28;20538;-73
2022/08/20 10:38:39;;;;;;;48.30;25.63;;;;;;;;;;10342400;28;20034;-74
2022/08/20 10:43:42;;;;;;;25.73;12.48;;;;;;;;;;10365586;28;20041;-74
2022/08/20 10:48:45;;;;;;;;;;;;;;;;;;10358869;28;20088;-74
2022/08/20 10:53:50;;;;;;;16.30;9.55;;;;;;;;;;10363603;28;19932;-74
2022/08/20 10:58:52;;;;;;;16.35;9.35;;;;;;;;;;10363935;28;20034;-73
2022/08/20 11:03:55;;;;;;;18.30;10.73;;;;;;;;;;10357364;28;20133;-74
2022/08/20 11:09:00;;;;;;;18.05;11.57;;;;;;;;;;10354079;28;20045;-74
2022/08/20 11:14:03;;;;;;;18.02;11.05;;;;;;;;;;10357857;28;20096;-73
2022/08/20 11:19:06;;;;;;;18.17;11.20;;;;;;;;;;10337006;28;20133;-73
2022/08/20 11:24:11;;;;;;;21.58;11.20;;;;;;;;;;10356820;28;20084;-72
2022/08/20 11:29:14;;;;;;;15.98;9.50;;;;;;;;;;10352483;28;20498;-74
2022/08/20 11:34:17;;;;;;;16.42;10.13;;;;;;;;;;10350032;28;20538;-73
2022/08/20 11:39:21;;;;;;;16.88;9.85;;;;;;;;;;10343283;28;20133;-73
2022/08/20 11:44:24;;;;;;;14.18;9.70;;;;;;;;;;10366233;28;20136;-74
2022/08/20 11:49:26;;;;;;;15.73;9.80;;;;;;;;;;10356997;28;20042;-74
2022/08/20 11:54:31;;;;;;;16.92;10.77;;;;;;;;;;10351260;28;20091;-74
2022/08/20 11:59:34;;;;;;;17.52;10.82;;;;;;;;;;10352724;28;20185;-74
2022/08/20 12:04:37;;;;;;;16.65;10.30;;;;;;;;;;10363384;28;20076;-73
2022/08/20 12:09:41;;;;;;;17.42;10.25;;;;;;;;;;10354566;28;20122;-74
2022/08/20 12:14:53;;;;;;;19.42;10.90;;;;;;;;;;10356248;28;20067;-74
2022/08/20 12:19:58;;;;;;;18.63;11.38;;;;;;;;;;10354155;28;20606;-74
2022/08/20 12:25:02;;;;;;;18.25;11.20;;;;;;;;;;10335144;28;20042;-74
2022/08/20 12:30:11;;;;;;;21.85;11.88;;;;;;;;;;10352641;28;20106;-74
2022/08/20 12:35:14;;;;;;;12.15;6.57;;;;;;;;;;10349560;28;20575;-74
2022/08/20 12:40:21;;;;;;;10.55;6.47;;;;;;;;;;10348972;28;20553;-74
2022/08/20 12:45:35;;;;;;;8.95;6.22;;;;;;;;;;10345731;28;20050;-74
2022/08/20 12:50:38;;;;;;;11.40;6.63;;;;;;;;;;10353404;28;20113;-74
2022/08/20 12:55:43;;;;;;;9.80;6.60;;;;;;;;;;10351433;28;20125;-74
2022/08/20 13:00:46;;;;;;;10.68;6.90;;;;;;;;;;10352332;28;20137;-74
2022/08/20 13:05:52;;;;;;;10.55;6.63;;;;;;;;;;10355387;28;20067;-78
2022/08/20 13:10:56;;;;;;;10.48;7.10;;;;;;;;;;10354779;28;20104;-74
2022/08/20 13:15:59;;;;;;;12.32;7.72;;;;;;;;;;10355342;28;20066;-74
2022/08/20 13:21:01;;;;;;;;;;;;;;;;;;10359504;28;20034;-74
2022/08/20 13:26:06;;;;;;;10.47;6.60;;;;;;;;;;10360484;28;19921;-74
2022/08/20 13:31:08;;;;;;;10.48;6.68;;;;;;;;;;10366935;28;20134;-72
2022/08/20 13:36:12;;;;;;;8.93;4.97;;;;;;;;;;10367152;28;20226;-73
2022/08/20 13:41:16;;;;;;;11.98;5.05;;;;;;;;;;10364967;28;20117;-73
2022/08/20 13:46:18;;;;;;;10.68;5.35;;;;;;;;;;10360282;28;20187;-73
2022/08/20 13:51:21;;;;;;;9.52;6.32;;;;;;;;;;10365295;28;20117;-73
2022/08/20 13:56:30;;;;;;;5.40;3.17;;;;;;;;;;10363458;28;20467;-74
2022/08/20 14:01:33;;;;;;;9.27;6.05;;;;;;;;;;10364394;28;20037;-74
2022/08/20 14:06:36;;;;;;;8.65;5.10;;;;;;;;;;10348414;28;20520;-73
2022/08/20 14:11:38;;;;;;;;;;;;;;;;;;10364012;28;20041;-73
2022/08/20 14:16:42;;;;;;;4.30;2.73;;;;;;;;;;10366463;28;19936;-74
2022/08/20 14:21:45;;;;;;;2.22;1.48;;;;;;;;;;10363789;28;20463;-74
2022/08/20 14:26:48;;;;;;;2.53;1.73;;;;;;;;;;10362601;28;20084;-74
2022/08/20 14:31:52;;;;;;;4.72;1.73;;;;;;;;;;10361399;28;20141;-74
2022/08/20 14:36:54;;;;;;;4.93;1.58;;;;;;;;;;10360463;28;20046;-74
2022/08/20 14:41:57;;;;;;;3.33;1.17;;;;;;;;;;10363408;28;20049;-74
2022/08/20 14:47:10;;;;;;;6.70;2.42;;;;;;;;;;10339064;28;20437;-75
2022/08/20 14:52:14;;;;;;;10.93;3.00;;;;;;;;;;10355534;28;20470;-74
2022/08/20 14:57:17;;;;;;;;;;;;;;;;;;10356109;28;20076;-74
2022/08/20 15:02:22;;;;;;;10.65;3.75;;;;;;;;;;10354953;28;19953;-74
2022/08/20 15:07:25;;;;;;;10.45;3.85;;;;;;;;;;10349924;28;20167;-75
2022/08/20 15:12:28;;;;;;;12.68;3.58;;;;;;;;;;10350459;28;20042;-76
2022/08/20 15:17:33;;;;;;;7.73;2.50;;;;;;;;;;10342234;28;20113;-77
2022/08/20 15:22:35;;;;;;;3.67;2.22;;;;;;;;;;10341847;28;20596;-78
2022/08/20 15:27:39;;;;;;;6.03;1.90;;;;;;;;;;10350215;28;20125;-78
2022/08/20 15:32:43;;;;;;;4.93;2.35;;;;;;;;;;10354180;28;20299;-77
2022/08/20 15:37:47;;;;;;;6.72;2.85;;;;;;;;;;10355142;28;20523;-78
2022/08/20 15:42:49;;;;;;;4.93;2.60;;;;;;;;;;10353094;28;20069;-79
2022/08/20 15:47:55;;;;;;;4.43;2.23;;;;;;;;;;10345727;28;20439;-78
2022/08/20 15:52:59;;;;;;;4.47;2.40;;;;;;;;;;10356881;28;20057;-79
2022/08/20 15:58:08;;;;;;;6.75;2.15;;;;;;;;;;10353781;28;20482;-78
2022/08/20 16:03:21;;;;;;;3.58;2.15;;;;;;;;;;10350427;28;20120;-79
2022/08/20 16:08:34;;;;;;;3.35;1.88;;;;;;;;;;10350135;28;20130;-78
2022/08/20 16:13:39;;;;;;;3.45;1.80;;;;;;;;;;10350420;28;20099;-78
2022/08/20 16:18:46;;;;;;;4.68;2.05;;;;;;;;;;10349596;28;20411;-78
2022/08/20 16:23:49;;;;;;;7.63;2.40;;;;;;;;;;10357053;28;21226;-78
2022/08/20 16:28:57;;;;;;;3.63;1.90;;;;;;;;;;10357570;28;20072;-78
2022/08/20 16:34:05;;;;;;;4.00;2.25;;;;;;;;;;10353562;28;20513;-78
2022/08/20 16:39:34;;;;;;;3.67;2.45;;;;;;;;;;10354790;28;20033;-78
2022/08/20 16:44:38;;;;;;;6.82;2.67;;;;;;;;;;10349438;28;20469;-78
2022/08/20 16:49:46;;;;;;;8.63;2.80;;;;;;;;;;10347580;28;20030;-79
2022/08/20 16:54:49;;;;;;;5.05;2.70;;;;;;;;;;10349877;28;20096;-79
2022/08/20 16:59:56;;;;;;;4.22;2.60;;;;;;;;;;10351991;28;20044;-79
2022/08/20 17:05:01;;;;;;;12.18;3.75;;;;;;;;;;10355437;28;20128;-78
2022/08/20 17:10:10;;;;;;;5.32;2.20;;;;;;;;;;10360806;28;20061;-78
2022/08/20 17:15:19;;;;;;;6.75;2.85;;;;;;;;;;10358592;28;20041;-79
2022/08/20 17:20:24;;;;;;;6.35;3.20;;;;;;;;;;10359134;28;20060;-79
2022/08/20 17:25:33;;;;;;;4.43;2.67;;;;;;;;;;10355081;28;20044;-78
2022/08/20 17:30:38;;;;;;;7.35;3.05;;;;;;;;;;10357283;28;20754;-78
2022/08/20 17:35:43;;;;;;;5.70;3.05;;;;;;;;;;10360914;28;20459;-78
2022/08/20 17:40:46;;;;;;;7.10;3.30;;;;;;;;;;10355577;28;20040;-78
2022/08/20 17:45:48;;;;;;;14.98;7.05;;;;;;;;;;10353129;28;20137;-78
2022/08/20 17:50:53;;;;;;;9.07;3.40;;;;;;;;;;10355828;28;20264;-78
2022/08/20 17:55:57;;;;;;;8.55;3.50;;;;;;;;;;10354095;28;20324;-77
2022/08/20 18:01:02;;;;;;;8.65;4.35;;;;;;;;;;10350092;28;20100;-78
2022/08/20 18:06:14;;;;;;;12.45;3.33;;;;;;;;;;10352550;28;20073;-76
2022/08/20 18:11:21;;;;;;;6.13;3.30;;;;;;;;;;10349058;28;20069;-78
2022/08/20 18:16:27;;;;;;;3.10;1.70;;;;;;;;;;10349022;28;20280;-77
2022/08/20 18:21:49;;;;;;;8.27;3.42;;;;;;;;;;10333244;28;20050;-77
2022/08/20 18:26:55;;;;;;;5.68;3.03;;;;;;;;;;10352014;28;20077;-78
2022/08/20 18:32:00;;;;;;;7.00;3.30;;;;;;;;;;10323691;28;20042;-78
2022/08/20 18:37:05;;;;;;;6.60;3.80;;;;;;;;;;10350551;28;20046;-78
2022/08/20 18:42:09;;;;;;;7.90;3.92;;;;;;;;;;10346043;28;20125;-78
2022/08/20 18:47:20;;;;;;;7.72;3.72;;;;;;;;;;10344545;28;20070;-77
2022/08/20 18:52:25;;;;;;;11.00;4.32;;;;;;;;;;10341342;28;20055;-76
2022/08/20 18:57:28;;;;;;;9.02;4.25;;;;;;;;;;10343986;28;20121;-78
2022/08/20 19:02:53;;;;;;;8.77;4.07;;;;;;;;;;10346794;28;20434;-74
2022/08/20 19:07:59;;;;;;;8.20;4.45;;;;;;;;;;10354059;28;20416;-74
2022/08/20 19:13:10;;;;;;;9.75;4.90;;;;;;;;;;10357704;28;20038;-74
2022/08/20 19:18:22;;;;;;;9.00;4.57;;;;;;;;;;10334584;28;20064;-72
2022/08/20 19:23:32;;;;;;;8.98;3.15;;;;;;;;;;10349197;28;20096;-73
2022/08/20 19:28:41;;;;;;;7.28;3.17;;;;;;;;;;10352484;28;20151;-74
2022/08/20 19:33:45;;;;;;;9.50;5.05;;;;;;;;;;10351524;28;20163;-74
2022/08/20 19:38:50;;;;;;;9.48;4.43;;;;;;;;;;10347567;28;20545;-73
2022/08/20 19:43:53;;;;;;;6.78;3.63;;;;;;;;;;10348974;28;20046;-74
2022/08/20 19:49:06;;;;;;;5.95;3.40;;;;;;;;;;10352316;28;20038;-77
2022/08/20 19:54:18;;;;;;;6.45;3.17;;;;;;;;;;10349293;28;20031;-77
2022/08/20 19:59:22;;;;;;;5.72;3.22;;;;;;;;;;10353389;28;20108;-76
2022/08/20 20:04:25;;;;;;;6.95;3.50;;;;;;;;;;10349649;28;20036;-76
2022/08/20 20:09:33;;;;;;;6.97;3.50;;;;;;;;;;10339337;28;20375;-76
2022/08/20 20:14:38;;;;;;;5.93;3.53;;;;;;;;;;10350668;28;20486;-76
2022/08/20 20:19:47;;;;;;;6.25;3.17;;;;;;;;;;10352960;28;20053;-76
2022/08/20 20:24:58;;;;;;;5.53;3.00;;;;;;;;;;10347982;28;20056;-76
2022/08/20 20:30:02;;;;;;;4.22;2.17;;;;;;;;;;10351677;28;20121;-75
2022/08/20 20:35:05;;;;;;;6.78;2.97;;;;;;;;;;10351674;28;20494;-76
2022/08/20 20:40:19;;;;;;;9.80;3.20;;;;;;;;;;10359995;28;20038;-75
2022/08/20 20:45:28;;;;;;;8.13;3.97;;;;;;;;;;10358875;28;20120;-76
2022/08/20 20:50:33;;;;;;;5.57;2.70;;;;;;;;;;10356638;28;20242;-76
2022/08/20 20:55:37;;;;;;;7.75;3.88;;;;;;;;;;10357678;28;20037;-76
2022/08/20 21:00:40;;;;;;;4.72;2.58;;;;;;;;;;10362570;28;20371;-75
2022/08/20 21:05:43;;;;;;;4.73;2.70;;;;;;;;;;10350624;28;20075;-77
2022/08/20 21:10:47;;;;;;;5.10;2.63;;;;;;;;;;10351649;28;20419;-76
2022/08/20 21:15:50;;;;;;;4.60;2.28;;;;;;;;;;10346498;28;20092;-74
2022/08/20 21:20:53;;;;;;;5.00;2.60;;;;;;;;;;10348590;28;20034;-74
2022/08/20 21:25:57;;;;;;;3.90;2.40;;;;;;;;;;10345037;28;20105;-75
2022/08/20 21:31:01;;;;;;;3.60;1.90;;;;;;;;;;10349069;28;20414;-74
2022/08/20 21:36:04;;;;;;;2.90;2.00;;;;;;;;;;10348459;28;20482;-76
2022/08/20 21:41:07;;;;;;;;;;;;;;;;;;10357574;28;20038;-76
2022/08/20 21:46:11;;;;;;;3.88;2.30;;;;;;;;;;10367818;28;19929;-75
2022/08/20 21:51:14;;;;;;;3.55;1.95;;;;;;;;;;10366499;28;20110;-76
2022/08/20 21:56:17;;;;;;;;;;;;;;;;;;10365679;28;20044;-75
2022/08/20 22:01:22;;;;;;;3.53;2.10;;;;;;;;;;10360966;28;19979;-76
2022/08/20 22:06:25;;;;;;;1.52;0.98;;;;;;;;;;10366965;28;20061;-75
2022/08/20 22:11:28;;;;;;;3.80;2.30;;;;;;;;;;10363426;28;20137;-75
2022/08/20 22:16:32;;;;;;;4.47;2.17;;;;;;;;;;10360743;28;20051;-76
2022/08/20 22:21:35;;;;;;;3.45;1.95;;;;;;;;;;10361223;28;20432;-76
2022/08/20 22:26:39;;;;;;;3.17;2.30;;;;;;;;;;10358488;28;20117;-75
2022/08/20 22:31:43;;;;;;;2.75;1.80;;;;;;;;;;10358016;28;20114;-75
2022/08/20 22:36:46;;;;;;;1.65;0.98;;;;;;;;;;10361881;28;20137;-75
2022/08/20 22:41:49;;;;;;;3.27;2.10;;;;;;;;;;10359543;28;20057;-75
2022/08/20 22:46:55;;;;;;;2.83;1.73;;;;;;;;;;10357574;28;20300;-74
2022/08/20 22:51:58;;;;;;;3.22;1.80;;;;;;;;;;10356679;28;20132;-75
2022/08/20 22:57:01;;;;;;;2.75;2.00;;;;;;;;;;10362147;28;20049;-74
2022/08/20 23:02:10;;;;;;;4.38;2.00;;;;;;;;;;10358529;28;20034;-75
2022/08/20 23:07:13;;;;;;;3.78;2.00;;;;;;;;;;10360809;28;20046;-77
2022/08/20 23:12:16;;;;;;;2.67;2.17;;;;;;;;;;10352781;28;20042;-75
2022/08/20 23:17:21;;;;;;;3.25;1.83;;;;;;;;;;10358942;28;20526;-73
2022/08/20 23:22:23;;;;;;;4.13;2.20;;;;;;;;;;10336598;28;20065;-74
2022/08/20 23:27:27;;;;;;;5.18;2.38;;;;;;;;;;10353360;28;20121;-74
2022/08/20 23:32:31;;;;;;;3.10;2.08;;;;;;;;;;10361247;28;20483;-75
2022/08/20 23:37:34;;;;;;;3.47;1.80;;;;;;;;;;10361911;28;20156;-75
2022/08/20 23:42:37;;;;;;;2.85;1.75;;;;;;;;;;10357208;28;20069;-74
2022/08/20 23:47:41;;;;;;;3.83;1.75;;;;;;;;;;10360878;28;20042;-74
2022/08/20 23:52:46;;;;;;;5.18;1.85;;;;;;;;;;10359546;28;20044;-74
2022/08/20 23:57:49;;;;;;;3.53;1.70;;;;;;;;;;10360531;28;20805;-74
